createdAt,value
2018-12-22T00:00:16.296Z,998.55
2018-12-22T00:02:09.739Z,998.59
2018-12-22T00:03:09.769Z,998.62
2018-12-22T00:05:03.220Z,998.67
2018-12-22T00:06:03.239Z,998.70
2018-12-22T00:07:56.697Z,998.78
2018-12-22T00:08:56.722Z,998.75
2018-12-22T00:10:50.159Z,998.82
2018-12-22T00:11:50.187Z,998.74
2018-12-22T00:13:43.633Z,998.73
2018-12-22T00:14:43.675Z,998.66
2018-12-22T00:16:37.093Z,998.67
2018-12-22T00:17:37.129Z,998.74
2018-12-22T00:19:30.572Z,998.76
2018-12-22T00:20:30.602Z,998.78
2018-12-22T00:22:24.041Z,998.72
2018-12-22T00:23:24.070Z,998.81
2018-12-22T00:25:17.529Z,998.86
2018-12-22T00:26:17.546Z,998.87
2018-12-22T00:28:11.004Z,998.80
2018-12-22T00:29:11.028Z,998.85
2018-12-22T00:31:04.477Z,998.91
2018-12-22T00:32:04.503Z,998.84
2018-12-22T00:33:57.953Z,998.81
2018-12-22T00:34:57.974Z,998.83
2018-12-22T00:36:51.430Z,998.84
2018-12-22T00:37:51.456Z,998.84
2018-12-22T00:39:44.920Z,998.88
2018-12-22T00:40:44.938Z,998.90
2018-12-22T00:42:38.392Z,998.96
2018-12-22T00:43:38.485Z,998.92
2018-12-22T00:45:31.868Z,998.98
2018-12-22T00:46:31.890Z,999.00
2018-12-22T00:48:25.343Z,999.06
2018-12-22T00:49:25.368Z,999.07
2018-12-22T00:51:18.834Z,999.09
2018-12-22T00:52:18.836Z,999.17
2018-12-22T00:54:12.287Z,999.19
2018-12-22T00:55:12.307Z,999.19
2018-12-22T00:57:05.748Z,999.13
2018-12-22T00:58:05.772Z,999.14
2018-12-22T00:59:59.220Z,999.19
2018-12-22T01:00:59.245Z,999.13
2018-12-22T01:02:52.692Z,999.19
2018-12-22T01:03:52.719Z,999.21
2018-12-22T01:05:46.166Z,999.25
2018-12-22T01:06:46.192Z,999.24
2018-12-22T01:08:39.665Z,999.27
2018-12-22T01:09:39.679Z,999.28
2018-12-22T01:11:33.119Z,999.39
2018-12-22T01:12:33.148Z,999.31
2018-12-22T01:14:26.609Z,999.31
2018-12-22T01:15:26.626Z,999.36
2018-12-22T01:17:20.086Z,999.41
2018-12-22T01:18:20.098Z,999.43
2018-12-22T01:20:13.570Z,999.39
2018-12-22T01:21:13.577Z,999.41
2018-12-22T01:23:07.025Z,999.46
2018-12-22T01:24:07.053Z,999.46
2018-12-22T01:26:00.503Z,999.50
2018-12-22T01:27:00.518Z,999.51
2018-12-22T01:28:53.977Z,999.57
2018-12-22T01:29:53.997Z,999.61
2018-12-22T01:31:47.439Z,999.64
2018-12-22T01:32:47.466Z,999.69
2018-12-22T01:34:40.921Z,999.69
2018-12-22T01:35:40.942Z,999.68
2018-12-22T01:37:34.386Z,999.74
2018-12-22T01:38:34.408Z,999.67
2018-12-22T01:40:27.868Z,999.69
2018-12-22T01:41:27.890Z,999.83
2018-12-22T01:43:21.326Z,999.83
2018-12-22T01:44:21.353Z,999.81
2018-12-22T01:46:14.798Z,999.83
2018-12-22T01:47:14.819Z,999.83
2018-12-22T01:49:08.266Z,999.88
2018-12-22T01:50:08.297Z,999.87
2018-12-22T01:52:01.733Z,999.88
2018-12-22T01:53:01.759Z,999.90
2018-12-22T01:54:55.216Z,999.91
2018-12-22T01:55:55.237Z,999.94
2018-12-22T01:57:48.696Z,999.93
2018-12-22T01:58:48.725Z,999.98
2018-12-22T02:00:42.170Z,999.91
2018-12-22T02:01:42.192Z,999.98
2018-12-22T02:03:35.628Z,999.96
2018-12-22T02:04:35.664Z,999.93
2018-12-22T02:06:29.123Z,999.95
2018-12-22T02:07:29.143Z,999.95
2018-12-22T02:09:22.116Z,999.94
2018-12-22T02:10:22.117Z,999.88
2018-12-22T02:12:15.567Z,999.93
2018-12-22T02:13:15.593Z,999.92
2018-12-22T02:15:09.041Z,999.93
2018-12-22T02:16:09.066Z,999.94
2018-12-22T02:18:02.512Z,999.97
2018-12-22T02:19:02.545Z,999.96
2018-12-22T02:20:55.987Z,999.94
2018-12-22T02:21:56.010Z,999.96
2018-12-22T02:23:49.448Z,1000.00
2018-12-22T02:24:49.480Z,1000.02
2018-12-22T02:26:42.928Z,1000.02
2018-12-22T02:27:42.951Z,1000.12
2018-12-22T02:29:36.396Z,1000.03
2018-12-22T02:30:36.416Z,1000.03
2018-12-22T02:32:29.859Z,1000.01
2018-12-22T02:33:29.884Z,1000.01
2018-12-22T02:35:23.335Z,1000.02
2018-12-22T02:36:23.354Z,1000.04
2018-12-22T02:38:16.790Z,1000.07
2018-12-22T02:39:16.819Z,1000.05
2018-12-22T02:41:10.268Z,1000.05
2018-12-22T02:42:10.289Z,1000.08
2018-12-22T02:44:03.730Z,1000.06
2018-12-22T02:45:03.775Z,1000.08
2018-12-22T02:46:57.217Z,1000.12
2018-12-22T02:47:57.235Z,1000.11
2018-12-22T02:49:50.699Z,1000.22
2018-12-22T02:50:50.724Z,1000.22
2018-12-22T02:52:44.174Z,1000.23
2018-12-22T02:53:44.209Z,1000.20
2018-12-22T02:55:37.654Z,1000.19
2018-12-22T02:56:37.673Z,1000.25
2018-12-22T02:58:31.120Z,1000.24
2018-12-22T02:59:31.140Z,1000.21
2018-12-22T03:01:24.587Z,1000.27
2018-12-22T03:02:24.609Z,1000.28
2018-12-22T03:04:17.561Z,1000.25
2018-12-22T03:05:17.580Z,1000.28
2018-12-22T03:07:11.033Z,1000.19
2018-12-22T03:08:11.055Z,1000.24
2018-12-22T03:10:04.512Z,1000.22
2018-12-22T03:11:04.532Z,1000.18
2018-12-22T03:12:57.975Z,1000.21
2018-12-22T03:13:58.005Z,1000.15
2018-12-22T03:15:51.457Z,1000.19
2018-12-22T03:16:51.491Z,1000.15
2018-12-22T03:18:44.931Z,1000.11
2018-12-22T03:19:44.961Z,1000.15
2018-12-22T03:21:38.409Z,1000.12
2018-12-22T03:22:38.426Z,1000.15
2018-12-22T03:24:31.872Z,1000.08
2018-12-22T03:25:31.902Z,1000.12
2018-12-22T03:27:25.359Z,1000.07
2018-12-22T03:28:25.379Z,1000.01
2018-12-22T03:30:18.833Z,1000.01
2018-12-22T03:31:18.852Z,1000.04
2018-12-22T03:33:12.292Z,1000.02
2018-12-22T03:34:12.319Z,1000.03
2018-12-22T03:36:05.779Z,1000.01
2018-12-22T03:37:05.817Z,1000.02
2018-12-22T03:38:59.248Z,1000.02
2018-12-22T03:39:59.276Z,1000.05
2018-12-22T03:41:52.720Z,1000.02
2018-12-22T03:42:52.751Z,1000.07
2018-12-22T03:44:46.183Z,999.99
2018-12-22T03:45:46.210Z,1000.04
2018-12-22T03:47:39.664Z,1000.03
2018-12-22T03:48:39.687Z,999.99
2018-12-22T03:50:33.131Z,1000.03
2018-12-22T03:51:33.156Z,1000.06
2018-12-22T03:53:26.592Z,1000.03
2018-12-22T03:54:26.619Z,1000.05
2018-12-22T03:56:20.067Z,1000.01
2018-12-22T03:57:20.092Z,1000.03
2018-12-22T03:59:13.524Z,1000.00
2018-12-22T04:00:13.554Z,1000.00
2018-12-22T04:02:07.015Z,1000.02
2018-12-22T04:03:07.034Z,1000.00
2018-12-22T04:05:00.483Z,999.98
2018-12-22T04:06:00.517Z,999.99
2018-12-22T04:07:53.981Z,999.99
2018-12-22T04:08:53.996Z,1000.04
2018-12-22T04:10:47.459Z,1000.02
2018-12-22T04:11:47.455Z,1000.04
2018-12-22T04:13:40.894Z,1000.08
2018-12-22T04:14:40.928Z,1000.07
2018-12-22T04:16:34.378Z,1000.03
2018-12-22T04:17:34.406Z,1000.03
2018-12-22T04:19:27.859Z,1000.00
2018-12-22T04:20:27.883Z,1000.02
2018-12-22T04:22:21.344Z,1000.06
2018-12-22T04:23:21.383Z,1000.04
2018-12-22T04:25:14.803Z,1000.10
2018-12-22T04:26:14.832Z,1000.07
2018-12-22T04:28:08.283Z,1000.12
2018-12-22T04:29:08.311Z,1000.09
2018-12-22T04:31:01.762Z,1000.12
2018-12-22T04:32:01.782Z,1000.16
2018-12-22T04:33:55.225Z,1000.14
2018-12-22T04:34:55.257Z,1000.11
2018-12-22T04:36:48.708Z,1000.16
2018-12-22T04:37:48.723Z,1000.13
2018-12-22T04:39:42.164Z,1000.14
2018-12-22T04:40:42.189Z,1000.14
2018-12-22T04:42:35.658Z,1000.14
2018-12-22T04:43:35.673Z,1000.15
2018-12-22T04:45:29.118Z,1000.12
2018-12-22T04:46:29.138Z,1000.15
2018-12-22T04:48:22.596Z,1000.11
2018-12-22T04:49:22.635Z,1000.10
2018-12-22T04:51:16.084Z,1000.16
2018-12-22T04:52:16.080Z,1000.18
2018-12-22T04:54:09.536Z,1000.20
2018-12-22T04:55:09.565Z,1000.12
2018-12-22T04:57:03.019Z,1000.17
2018-12-22T04:58:03.040Z,1000.17
2018-12-22T04:59:56.492Z,1000.16
2018-12-22T05:00:56.520Z,1000.17
2018-12-22T05:02:49.981Z,1000.16
2018-12-22T05:03:50.003Z,1000.15
2018-12-22T05:05:43.446Z,1000.17
2018-12-22T05:06:43.482Z,1000.12
2018-12-22T05:08:36.918Z,1000.12
2018-12-22T05:09:36.948Z,1000.14
2018-12-22T05:11:30.406Z,1000.12
2018-12-22T05:12:30.428Z,1000.12
2018-12-22T05:14:23.860Z,1000.09
2018-12-22T05:15:23.890Z,1000.03
2018-12-22T05:17:17.335Z,1000.04
2018-12-22T05:18:17.356Z,1000.06
2018-12-22T05:20:10.795Z,1000.06
2018-12-22T05:21:10.830Z,1000.04
2018-12-22T05:23:04.274Z,1000.05
2018-12-22T05:24:04.300Z,1000.11
2018-12-22T05:25:57.734Z,1000.03
2018-12-22T05:26:57.760Z,1000.04
2018-12-22T05:28:51.208Z,1000.04
2018-12-22T05:29:51.939Z,1000.04
2018-12-22T05:31:44.676Z,1000.02
2018-12-22T05:32:44.700Z,1000.06
2018-12-22T05:34:38.145Z,1000.00
2018-12-22T05:35:38.169Z,1000.01
2018-12-22T05:37:31.619Z,1000.01
2018-12-22T05:38:31.641Z,1000.03
2018-12-22T05:40:25.094Z,1000.02
2018-12-22T05:41:25.126Z,999.97
2018-12-22T05:43:18.581Z,1000.05
2018-12-22T05:44:18.603Z,1000.03
2018-12-22T05:46:11.553Z,999.97
2018-12-22T05:47:11.575Z,999.97
2018-12-22T05:49:04.530Z,999.99
2018-12-22T05:50:04.552Z,999.96
2018-12-22T05:51:58.000Z,999.92
2018-12-22T05:52:58.018Z,999.94
2018-12-22T05:54:51.454Z,999.90
2018-12-22T05:55:51.484Z,999.88
2018-12-22T05:57:44.935Z,999.89
2018-12-22T05:58:44.957Z,999.87
2018-12-22T06:00:38.397Z,999.88
2018-12-22T06:01:38.422Z,999.86
2018-12-22T06:03:31.878Z,999.93
2018-12-22T06:04:31.900Z,999.90
2018-12-22T06:06:25.347Z,999.90
2018-12-22T06:07:25.382Z,999.92
2018-12-22T06:09:18.819Z,999.86
2018-12-22T06:10:18.839Z,999.91
2018-12-22T06:12:12.414Z,999.87
2018-12-22T06:13:12.318Z,999.92
2018-12-22T06:15:05.767Z,999.91
2018-12-22T06:16:05.792Z,999.92
2018-12-22T06:17:59.241Z,999.94
2018-12-22T06:18:59.260Z,999.96
2018-12-22T06:20:52.706Z,999.99
2018-12-22T06:21:52.725Z,1000.02
2018-12-22T06:23:46.178Z,999.99
2018-12-22T06:24:46.191Z,999.98
2018-12-22T06:26:39.644Z,1000.05
2018-12-22T06:27:39.673Z,1000.01
2018-12-22T06:29:33.119Z,1000.01
2018-12-22T06:30:33.143Z,1000.06
2018-12-22T06:32:26.597Z,1000.08
2018-12-22T06:33:26.615Z,1000.09
2018-12-22T06:35:20.055Z,1000.08
2018-12-22T06:36:20.083Z,1000.09
2018-12-22T06:38:13.531Z,1000.10
2018-12-22T06:39:13.558Z,1000.13
2018-12-22T06:41:07.009Z,1000.12
2018-12-22T06:42:07.036Z,1000.09
2018-12-22T06:44:00.483Z,1000.14
2018-12-22T06:45:00.521Z,1000.14
2018-12-22T06:46:53.940Z,1000.13
2018-12-22T06:47:53.974Z,1000.16
2018-12-22T06:49:47.413Z,1000.18
2018-12-22T06:50:47.438Z,1000.21
2018-12-22T06:52:40.890Z,1000.23
2018-12-22T06:53:42.037Z,1000.22
2018-12-22T06:55:34.352Z,1000.26
2018-12-22T06:56:34.379Z,1000.28
2018-12-22T06:58:27.825Z,1000.28
2018-12-22T06:59:27.847Z,1000.31
2018-12-22T07:01:21.289Z,1000.32
2018-12-22T07:02:21.313Z,1000.36
2018-12-22T07:04:14.762Z,1000.38
2018-12-22T07:05:14.781Z,1000.35
2018-12-22T07:07:08.222Z,1000.37
2018-12-22T07:08:08.250Z,1000.35
2018-12-22T07:10:01.695Z,1000.36
2018-12-22T07:11:01.716Z,1000.39
2018-12-22T07:12:55.184Z,1000.40
2018-12-22T07:13:55.196Z,1000.42
2018-12-22T07:15:48.637Z,1000.46
2018-12-22T07:16:48.713Z,1000.50
2018-12-22T07:18:42.115Z,1000.49
2018-12-22T07:19:42.143Z,1000.53
2018-12-22T07:21:35.584Z,1000.55
2018-12-22T07:22:35.609Z,1000.57
2018-12-22T07:24:29.053Z,1000.61
2018-12-22T07:25:29.074Z,1000.61
2018-12-22T07:27:22.517Z,1000.65
2018-12-22T07:28:22.542Z,1000.62
2018-12-22T07:30:15.985Z,1000.69
2018-12-22T07:31:16.009Z,1000.68
2018-12-22T07:33:09.455Z,1000.64
2018-12-22T07:34:09.478Z,1000.68
2018-12-22T07:36:02.916Z,1000.74
2018-12-22T07:37:02.943Z,1000.75
2018-12-22T07:38:56.389Z,1000.81
2018-12-22T07:39:56.410Z,1000.80
2018-12-22T07:41:49.857Z,1000.84
2018-12-22T07:42:49.888Z,1000.90
2018-12-22T07:44:43.342Z,1000.94
2018-12-22T07:45:43.365Z,1000.98
2018-12-22T07:47:36.806Z,1001.01
2018-12-22T07:48:36.839Z,1001.03
2018-12-22T07:50:30.282Z,1001.03
2018-12-22T07:51:30.302Z,1001.06
2018-12-22T07:53:23.748Z,1001.11
2018-12-22T07:54:23.768Z,1001.11
2018-12-22T07:56:17.207Z,1001.21
2018-12-22T07:57:17.236Z,1001.16
2018-12-22T07:59:10.679Z,1001.19
2018-12-22T08:00:10.702Z,1001.18
2018-12-22T08:02:04.161Z,1001.20
2018-12-22T08:03:04.190Z,1001.22
2018-12-22T08:04:57.648Z,1001.28
2018-12-22T08:05:57.668Z,1001.28
2018-12-22T08:07:51.117Z,1001.30
2018-12-22T08:08:51.148Z,1001.33
2018-12-22T08:10:44.606Z,1001.37
2018-12-22T08:11:44.622Z,1001.36
2018-12-22T08:13:38.070Z,1001.47
2018-12-22T08:14:38.089Z,1001.48
2018-12-22T08:16:31.043Z,1001.52
2018-12-22T08:17:31.066Z,1001.48
2018-12-22T08:19:24.530Z,1001.57
2018-12-22T08:20:24.554Z,1001.58
2018-12-22T08:22:17.500Z,1001.65
2018-12-22T08:23:17.528Z,1001.64
2018-12-22T08:25:10.482Z,1001.71
2018-12-22T08:26:10.502Z,1001.75
2018-12-22T08:28:03.444Z,1001.76
2018-12-22T08:29:03.478Z,1001.75
2018-12-22T08:30:56.427Z,1001.76
2018-12-22T08:31:56.446Z,1001.75
2018-12-22T08:33:49.406Z,1001.81
2018-12-22T08:34:49.423Z,1001.82
2018-12-22T08:36:42.369Z,1001.88
2018-12-22T08:37:42.398Z,1001.91
2018-12-22T08:39:35.352Z,1001.94
2018-12-22T08:40:35.371Z,1002.00
2018-12-22T08:42:28.318Z,1002.01
2018-12-22T08:43:28.347Z,1002.04
2018-12-22T08:45:21.307Z,1002.12
2018-12-22T08:46:21.329Z,1002.07
2018-12-22T08:48:14.278Z,1002.13
2018-12-22T08:49:14.311Z,1002.16
2018-12-22T08:51:07.261Z,1002.21
2018-12-22T08:52:07.282Z,1002.21
2018-12-22T08:54:00.242Z,1002.26
2018-12-22T08:55:00.257Z,1002.31
2018-12-22T08:56:53.202Z,1002.42
2018-12-22T08:57:53.231Z,1002.44
2018-12-22T08:59:46.184Z,1002.51
2018-12-22T09:00:52.143Z,1002.54
2018-12-22T09:02:39.658Z,1002.60
2018-12-22T09:03:39.682Z,1002.64
2018-12-22T09:05:32.636Z,1002.64
2018-12-22T09:06:32.655Z,1002.70
2018-12-22T09:08:25.608Z,1002.78
2018-12-22T09:09:25.633Z,1002.79
2018-12-22T09:11:18.587Z,1002.86
2018-12-22T09:12:18.616Z,1002.86
2018-12-22T09:14:11.564Z,1002.92
2018-12-22T09:15:11.580Z,1002.91
2018-12-22T09:17:04.530Z,1002.90
2018-12-22T09:18:04.560Z,1002.92
2018-12-22T09:19:57.512Z,1003.00
2018-12-22T09:20:57.535Z,1002.99
2018-12-22T09:22:50.478Z,1003.11
2018-12-22T09:23:50.509Z,1003.15
2018-12-22T09:25:43.461Z,1003.14
2018-12-22T09:26:43.486Z,1003.15
2018-12-22T09:28:36.441Z,1003.22
2018-12-22T09:29:36.461Z,1003.23
2018-12-22T09:31:29.920Z,1003.33
2018-12-22T09:32:29.940Z,1003.34
2018-12-22T09:34:22.890Z,1003.36
2018-12-22T09:35:22.916Z,1003.37
2018-12-22T09:37:15.870Z,1003.47
2018-12-22T09:38:15.896Z,1003.46
2018-12-22T09:40:08.852Z,1003.49
2018-12-22T09:41:08.873Z,1003.50
2018-12-22T09:43:01.818Z,1003.49
2018-12-22T09:44:01.844Z,1003.51
2018-12-22T09:45:54.801Z,1003.56
2018-12-22T09:46:54.825Z,1003.60
2018-12-22T09:48:47.770Z,1003.61
2018-12-22T09:49:47.799Z,1003.64
2018-12-22T09:51:40.752Z,1003.64
2018-12-22T09:52:40.772Z,1003.69
2018-12-22T09:54:33.727Z,1003.73
2018-12-22T09:55:33.752Z,1003.78
2018-12-22T09:57:26.708Z,1003.81
2018-12-22T09:58:26.725Z,1003.83
2018-12-22T10:00:19.679Z,1003.85
2018-12-22T10:01:19.701Z,1003.89
2018-12-22T10:03:12.649Z,1003.91
2018-12-22T10:04:12.676Z,1003.94
2018-12-22T10:06:05.628Z,1003.95
2018-12-22T10:07:05.652Z,1003.94
2018-12-22T10:08:58.595Z,1004.01
2018-12-22T10:09:58.625Z,1004.00
2018-12-22T10:11:51.579Z,1004.09
2018-12-22T10:12:51.599Z,1004.11
2018-12-22T10:14:44.543Z,1004.09
2018-12-22T10:15:44.571Z,1004.12
2018-12-22T10:17:37.527Z,1004.18
2018-12-22T10:18:37.552Z,1004.15
2018-12-22T10:20:30.508Z,1004.13
2018-12-22T10:21:30.530Z,1004.18
2018-12-22T10:23:23.483Z,1004.19
2018-12-22T10:24:23.512Z,1004.27
2018-12-22T10:26:16.465Z,1004.31
2018-12-22T10:27:16.489Z,1004.33
2018-12-22T10:29:09.434Z,1004.32
2018-12-22T10:30:09.462Z,1004.34
2018-12-22T10:32:02.417Z,1004.34
2018-12-22T10:33:02.434Z,1004.35
2018-12-22T10:34:55.386Z,1004.38
2018-12-22T10:35:55.417Z,1004.44
2018-12-22T10:37:48.871Z,1004.46
2018-12-22T10:38:48.890Z,1004.55
2018-12-22T10:40:41.840Z,1004.56
2018-12-22T10:41:41.864Z,1004.56
2018-12-22T10:43:34.812Z,1004.57
2018-12-22T10:44:34.839Z,1004.59
2018-12-22T10:46:27.793Z,1004.59
2018-12-22T10:47:27.814Z,1004.63
2018-12-22T10:49:20.764Z,1004.65
2018-12-22T10:50:20.792Z,1004.70
2018-12-22T10:52:14.244Z,1004.75
2018-12-22T10:53:14.269Z,1004.78
2018-12-22T10:55:07.219Z,1004.79
2018-12-22T10:56:07.249Z,1004.83
2018-12-22T10:58:00.199Z,1004.80
2018-12-22T10:59:00.223Z,1004.89
2018-12-22T11:00:53.196Z,1004.90
2018-12-22T11:01:53.199Z,1004.93
2018-12-22T11:03:46.140Z,1004.95
2018-12-22T11:04:46.173Z,1004.89
2018-12-22T11:06:39.124Z,1004.92
2018-12-22T11:07:39.146Z,1004.94
2018-12-22T11:09:32.089Z,1004.93
2018-12-22T11:10:32.121Z,1004.88
2018-12-22T11:12:25.564Z,1004.94
2018-12-22T11:13:25.586Z,1004.93
2018-12-22T11:15:18.541Z,1004.94
2018-12-22T11:16:18.622Z,1004.97
2018-12-22T11:18:11.517Z,1004.98
2018-12-22T11:19:11.538Z,1005.05
2018-12-22T11:21:04.480Z,1005.04
2018-12-22T11:22:04.509Z,1005.10
2018-12-22T11:23:57.524Z,1005.14
2018-12-22T11:24:57.482Z,1005.19
2018-12-22T11:26:50.436Z,1005.17
2018-12-22T11:27:50.456Z,1005.17
2018-12-22T11:29:43.444Z,1005.22
2018-12-22T11:30:43.461Z,1005.17
2018-12-22T11:32:36.416Z,1005.24
2018-12-22T11:33:36.437Z,1005.27
2018-12-22T11:35:29.386Z,1005.26
2018-12-22T11:36:29.412Z,1005.30
2018-12-22T11:38:22.369Z,1005.32
2018-12-22T11:39:22.386Z,1005.31
2018-12-22T11:41:15.833Z,1005.40
2018-12-22T11:42:15.871Z,1005.47
2018-12-22T11:44:09.310Z,1005.43
2018-12-22T11:45:09.331Z,1005.46
2018-12-22T11:47:02.773Z,1005.45
2018-12-22T11:48:02.800Z,1005.47
2018-12-22T11:49:56.253Z,1005.46
2018-12-22T11:50:56.285Z,1005.46
2018-12-22T11:52:49.730Z,1005.51
2018-12-22T11:53:49.748Z,1005.50
2018-12-22T11:55:43.205Z,1005.51
2018-12-22T11:56:43.229Z,1005.57
2018-12-22T11:58:38.278Z,1005.55
2018-12-22T11:59:36.716Z,1005.56
2018-12-22T12:01:30.163Z,1005.60
2018-12-22T12:02:30.196Z,1005.60
2018-12-22T12:04:23.657Z,1005.57
2018-12-22T12:05:23.675Z,1005.60
2018-12-22T12:07:16.629Z,1005.58
2018-12-22T12:08:16.651Z,1005.59
2018-12-22T12:10:09.606Z,1005.64
2018-12-22T12:11:09.635Z,1005.62
2018-12-22T12:13:02.592Z,1005.67
2018-12-22T12:14:02.608Z,1005.70
2018-12-22T12:15:55.556Z,1005.70
2018-12-22T12:16:55.585Z,1005.74
2018-12-22T12:18:48.538Z,1005.78
2018-12-22T12:19:48.558Z,1005.78
2018-12-22T12:21:41.509Z,1005.83
2018-12-22T12:22:41.539Z,1005.74
2018-12-22T12:24:34.491Z,1005.81
2018-12-22T12:25:34.509Z,1005.87
2018-12-22T12:27:27.465Z,1005.88
2018-12-22T12:28:27.487Z,1005.89
2018-12-22T12:30:20.432Z,1005.91
2018-12-22T12:31:20.459Z,1005.97
2018-12-22T12:33:13.416Z,1005.99
2018-12-22T12:34:13.439Z,1005.97
2018-12-22T12:36:06.385Z,1005.95
2018-12-22T12:37:06.417Z,1006.00
2018-12-22T12:38:59.367Z,1005.97
2018-12-22T12:39:59.397Z,1005.99
2018-12-22T12:41:52.337Z,1005.98
2018-12-22T12:42:52.368Z,1006.10
2018-12-22T12:44:45.319Z,1006.08
2018-12-22T12:45:45.340Z,1006.05
2018-12-22T12:47:38.305Z,1006.08
2018-12-22T12:48:38.333Z,1006.07
2018-12-22T12:50:31.288Z,1006.04
2018-12-22T12:51:31.311Z,1006.07
2018-12-22T12:53:24.266Z,1006.17
2018-12-22T12:54:24.285Z,1006.16
2018-12-22T12:56:17.231Z,1006.14
2018-12-22T12:57:17.264Z,1006.19
2018-12-22T12:59:10.715Z,1006.14
2018-12-22T13:00:10.736Z,1006.17
2018-12-22T13:02:03.683Z,1006.21
2018-12-22T13:03:03.710Z,1006.24
2018-12-22T13:04:56.678Z,1006.23
2018-12-22T13:05:56.698Z,1006.20
2018-12-22T13:07:50.150Z,1006.16
2018-12-22T13:08:50.173Z,1006.15
2018-12-22T13:10:43.132Z,1006.17
2018-12-22T13:11:43.151Z,1006.20
2018-12-22T13:13:36.119Z,1006.21
2018-12-22T13:14:36.131Z,1006.20
2018-12-22T13:16:29.085Z,1006.28
2018-12-22T13:17:29.116Z,1006.31
2018-12-22T13:19:22.633Z,1006.29
2018-12-22T13:20:22.652Z,1006.31
2018-12-22T13:22:15.872Z,1006.34
2018-12-22T13:23:15.889Z,1006.33
2018-12-22T13:25:09.097Z,1006.30
2018-12-22T13:26:08.869Z,1006.31
2018-12-22T13:28:01.809Z,1006.33
2018-12-22T13:29:01.838Z,1006.32
2018-12-22T13:30:55.218Z,1006.30
2018-12-22T13:31:55.320Z,1006.31
2018-12-22T13:33:48.270Z,1006.26
2018-12-22T13:34:48.124Z,1006.25
2018-12-22T13:36:41.073Z,1006.23
2018-12-22T13:37:41.193Z,1006.25
2018-12-22T13:39:34.267Z,1006.23
2018-12-22T13:40:34.432Z,1006.23
2018-12-22T13:42:27.627Z,1006.25
2018-12-22T13:43:27.547Z,1006.26
2018-12-22T13:45:20.639Z,1006.21
2018-12-22T13:46:21.008Z,1006.26
2018-12-22T13:48:13.623Z,1006.27
2018-12-22T13:49:13.817Z,1006.30
2018-12-22T13:51:06.881Z,1006.31
2018-12-22T13:52:06.531Z,1006.30
2018-12-22T13:53:59.497Z,1006.40
2018-12-22T13:54:59.519Z,1006.29
2018-12-22T13:56:52.467Z,1006.36
2018-12-22T13:57:52.498Z,1006.35
2018-12-22T13:59:45.452Z,1006.38
2018-12-22T14:00:45.470Z,1006.37
2018-12-22T14:02:38.427Z,1006.36
2018-12-22T14:03:38.454Z,1006.35
2018-12-22T14:05:31.407Z,1006.39
2018-12-22T14:06:31.431Z,1006.35
2018-12-22T14:08:24.378Z,1006.37
2018-12-22T14:09:24.406Z,1006.35
2018-12-22T14:11:17.367Z,1006.27
2018-12-22T14:12:17.385Z,1006.37
2018-12-22T14:14:10.346Z,1006.37
2018-12-22T14:15:10.370Z,1006.36
2018-12-22T14:17:03.313Z,1006.35
2018-12-22T14:18:03.339Z,1006.37
2018-12-22T14:19:56.299Z,1006.42
2018-12-22T14:20:56.318Z,1006.41
2018-12-22T14:22:49.261Z,1006.47
2018-12-22T14:23:49.294Z,1006.41
2018-12-22T14:25:42.245Z,1006.44
2018-12-22T14:26:42.271Z,1006.43
2018-12-22T14:28:35.214Z,1006.44
2018-12-22T14:29:35.246Z,1006.49
2018-12-22T14:31:28.200Z,1006.51
2018-12-22T14:32:28.221Z,1006.56
2018-12-22T14:34:21.198Z,1006.48
2018-12-22T14:35:21.194Z,1006.55
2018-12-22T14:37:14.642Z,1006.54
2018-12-22T14:38:14.672Z,1006.50
2018-12-22T14:40:07.624Z,1006.59
2018-12-22T14:41:07.645Z,1006.56
2018-12-22T14:43:00.593Z,1006.60
2018-12-22T14:44:00.624Z,1006.61
2018-12-22T14:45:54.069Z,1006.63
2018-12-22T14:46:54.089Z,1006.63
2018-12-22T14:48:47.036Z,1006.60
2018-12-22T14:49:47.066Z,1006.65
2018-12-22T14:51:40.021Z,1006.69
2018-12-22T14:52:40.042Z,1006.61
2018-12-22T14:54:32.998Z,1006.66
2018-12-22T14:55:33.030Z,1006.68
2018-12-22T14:57:26.001Z,1006.73
2018-12-22T14:58:26.020Z,1006.73
2018-12-22T15:00:19.481Z,1006.67
2018-12-22T15:01:19.498Z,1006.69
2018-12-22T15:03:12.453Z,1006.64
2018-12-22T15:04:12.484Z,1006.73
2018-12-22T15:06:05.444Z,1006.71
2018-12-22T15:07:05.476Z,1006.74
2018-12-22T15:08:58.416Z,1006.81
2018-12-22T15:09:58.447Z,1006.77
2018-12-22T15:11:51.410Z,1006.87
2018-12-22T15:12:51.433Z,1006.81
2018-12-22T15:14:44.380Z,1006.78
2018-12-22T15:15:44.407Z,1006.83
2018-12-22T15:17:37.367Z,1006.86
2018-12-22T15:18:37.392Z,1006.89
2018-12-22T15:20:30.346Z,1006.82
2018-12-22T15:21:30.375Z,1006.85
2018-12-22T15:23:23.313Z,1006.88
2018-12-22T15:24:23.352Z,1006.92
2018-12-22T15:26:16.306Z,1006.95
2018-12-22T15:27:16.320Z,1006.98
2018-12-22T15:29:09.760Z,1006.93
2018-12-22T15:30:09.795Z,1007.05
2018-12-22T15:32:03.229Z,1007.09
2018-12-22T15:33:03.253Z,1007.04
2018-12-22T15:34:56.199Z,1007.09
2018-12-22T15:35:56.232Z,1007.11
2018-12-22T15:37:49.185Z,1007.12
2018-12-22T15:38:49.206Z,1007.15
2018-12-22T15:40:42.175Z,1007.14
2018-12-22T15:41:42.180Z,1007.14
2018-12-22T15:43:35.131Z,1007.20
2018-12-22T15:44:35.155Z,1007.22
2018-12-22T15:46:28.635Z,1007.20
2018-12-22T15:47:28.134Z,1007.14
2018-12-22T15:49:21.084Z,1007.21
2018-12-22T15:50:21.115Z,1007.23
2018-12-22T15:52:14.064Z,1007.18
2018-12-22T15:53:14.090Z,1007.24
2018-12-22T15:55:07.063Z,1007.26
2018-12-22T15:56:07.071Z,1007.27
2018-12-22T15:58:00.022Z,1007.36
2018-12-22T15:59:00.042Z,1007.29
2018-12-22T16:00:53.001Z,1007.34
2018-12-22T16:01:53.023Z,1007.39
2018-12-22T16:03:45.975Z,1007.37
2018-12-22T16:04:46.002Z,1007.33
2018-12-22T16:06:39.381Z,1007.42
2018-12-22T16:07:39.410Z,1007.43
2018-12-22T16:09:32.519Z,1007.42
2018-12-22T16:10:32.543Z,1007.43
2018-12-22T16:12:25.494Z,1007.41
2018-12-22T16:13:25.960Z,1007.38
2018-12-22T16:15:18.466Z,1007.36
2018-12-22T16:16:18.495Z,1007.38
2018-12-22T16:18:11.459Z,1007.45
2018-12-22T16:19:11.485Z,1007.43
2018-12-22T16:21:04.430Z,1007.44
2018-12-22T16:22:04.462Z,1007.45
2018-12-22T16:23:57.411Z,1007.43
2018-12-22T16:24:57.429Z,1007.47
2018-12-22T16:26:50.887Z,1007.42
2018-12-22T16:27:50.911Z,1007.50
2018-12-22T16:29:43.855Z,1007.51
2018-12-22T16:30:43.885Z,1007.46
2018-12-22T16:32:36.839Z,1007.54
2018-12-22T16:33:36.859Z,1007.64
2018-12-22T16:35:29.809Z,1007.57
2018-12-22T16:36:29.846Z,1007.60
2018-12-22T16:38:22.788Z,1007.51
2018-12-22T16:39:22.821Z,1007.59
2018-12-22T16:41:15.763Z,1007.66
2018-12-22T16:42:15.792Z,1007.61
2018-12-22T16:44:08.772Z,1007.67
2018-12-22T16:45:08.798Z,1007.62
2018-12-22T16:47:01.759Z,1007.61
2018-12-22T16:48:01.781Z,1007.68
2018-12-22T16:49:54.735Z,1007.62
2018-12-22T16:50:54.759Z,1007.76
2018-12-22T16:52:47.720Z,1007.69
2018-12-22T16:53:47.741Z,1007.70
2018-12-22T16:55:40.683Z,1007.77
2018-12-22T16:56:40.713Z,1007.77
2018-12-22T16:58:34.164Z,1007.89
2018-12-22T16:59:34.188Z,1007.84
2018-12-22T17:01:27.136Z,1007.86
2018-12-22T17:02:27.171Z,1007.87
2018-12-22T17:04:20.116Z,1007.82
2018-12-22T17:05:20.140Z,1007.86
2018-12-22T17:07:13.234Z,1007.86
2018-12-22T17:08:13.114Z,1007.93
2018-12-22T17:10:06.059Z,1007.89
2018-12-22T17:11:06.091Z,1007.92
2018-12-22T17:12:59.044Z,1007.92
2018-12-22T17:13:59.068Z,1007.92
2018-12-22T17:15:52.026Z,1007.97
2018-12-22T17:16:52.049Z,1007.99
2018-12-22T17:18:45.003Z,1008.04
2018-12-22T17:19:45.017Z,1008.02
2018-12-22T17:21:37.971Z,1007.97
2018-12-22T17:22:38.001Z,1008.01
2018-12-22T17:24:30.954Z,1008.04
2018-12-22T17:25:30.973Z,1008.04
2018-12-22T17:27:23.924Z,1008.04
2018-12-22T17:28:28.166Z,1008.04
2018-12-22T17:30:16.907Z,1008.10
2018-12-22T17:31:16.925Z,1008.11
2018-12-22T17:33:09.886Z,1008.14